createdAt,value
2017-05-05T00:00:48.481Z,1013.68
2017-05-05T00:01:48.461Z,1013.65
2017-05-05T00:02:48.444Z,1013.67
2017-05-05T00:03:48.424Z,1013.64
2017-05-05T00:04:48.402Z,1013.62
2017-05-05T00:05:48.382Z,1013.62
2017-05-05T00:06:48.364Z,1013.61
2017-05-05T00:07:48.342Z,1013.61
2017-05-05T00:08:48.330Z,1013.61
2017-05-05T00:09:48.303Z,1013.58
2017-05-05T00:10:48.282Z,1013.6
2017-05-05T00:11:48.261Z,1013.61
2017-05-05T00:12:48.242Z,1013.56
2017-05-05T00:13:48.238Z,1013.59
2017-05-05T00:14:48.200Z,1013.59
2017-05-05T00:15:48.181Z,1013.61
2017-05-05T00:16:48.163Z,1013.58
2017-05-05T00:17:48.143Z,1013.61
2017-05-05T00:18:48.118Z,1013.58
2017-05-05T00:19:48.104Z,1013.6
2017-05-05T00:20:48.083Z,1013.61
2017-05-05T00:21:48.063Z,1013.59
2017-05-05T00:22:48.043Z,1013.58
2017-05-05T00:23:48.022Z,1013.57
2017-05-05T00:24:48.001Z,1013.56
2017-05-05T00:25:47.979Z,1013.55
2017-05-05T00:26:47.962Z,1013.57
2017-05-05T00:27:47.944Z,1013.53
2017-05-05T00:28:47.963Z,1013.55
2017-05-05T00:29:47.904Z,1013.52
2017-05-05T00:30:47.882Z,1013.51
2017-05-05T00:31:47.854Z,1013.52
2017-05-05T00:32:47.834Z,1013.51
2017-05-05T00:33:47.812Z,1013.47
2017-05-05T00:34:47.817Z,1013.5
2017-05-05T00:35:47.771Z,1013.48
2017-05-05T00:36:47.753Z,1013.51
2017-05-05T00:37:47.730Z,1013.47
2017-05-05T00:38:47.712Z,1013.49
2017-05-05T00:39:47.692Z,1013.5
2017-05-05T00:40:47.675Z,1013.5
2017-05-05T00:41:47.653Z,1013.51
2017-05-05T00:42:47.633Z,1013.5
2017-05-05T00:43:47.613Z,1013.51
2017-05-05T00:44:47.639Z,1013.5
2017-05-05T00:45:47.571Z,1013.49
2017-05-05T00:46:47.599Z,1013.48
2017-05-05T00:47:47.526Z,1013.47
2017-05-05T00:48:47.508Z,1013.45
2017-05-05T00:49:47.488Z,1013.45
2017-05-05T00:50:47.520Z,1013.43
2017-05-05T00:51:47.451Z,1013.42
2017-05-05T00:52:47.432Z,1013.41
2017-05-05T00:53:47.412Z,1013.45
2017-05-05T00:54:47.458Z,1013.43
2017-05-05T00:55:47.364Z,1013.4
2017-05-05T00:56:47.348Z,1013.37
2017-05-05T00:57:47.333Z,1013.38
2017-05-05T00:58:47.302Z,1013.39
2017-05-05T00:59:47.283Z,1013.38
2017-05-05T01:00:47.276Z,1013.37
2017-05-05T01:01:47.241Z,1013.33
2017-05-05T01:02:47.273Z,1013.34
2017-05-05T01:03:47.202Z,1013.35
2017-05-05T01:04:47.193Z,1013.34
2017-05-05T01:05:47.159Z,1013.33
2017-05-05T01:06:47.152Z,1013.35
2017-05-05T01:07:47.125Z,1013.35
2017-05-05T01:08:47.101Z,1013.35
2017-05-05T01:09:47.091Z,1013.35
2017-05-05T01:10:47.063Z,1013.35
2017-05-05T01:11:47.043Z,1013.38
2017-05-05T01:12:47.022Z,1013.34
2017-05-05T01:13:46.995Z,1013.38
2017-05-05T01:14:46.983Z,1013.39
2017-05-05T01:15:46.965Z,1013.38
2017-05-05T01:16:46.938Z,1013.35
2017-05-05T01:17:46.917Z,1013.38
2017-05-05T01:18:46.898Z,1013.34
2017-05-05T01:19:46.875Z,1013.41
2017-05-05T01:20:46.852Z,1013.38
2017-05-05T01:21:46.838Z,1013.39
2017-05-05T01:22:46.813Z,1013.39
2017-05-05T01:23:46.793Z,1013.4
2017-05-05T01:24:46.772Z,1013.44
2017-05-05T01:25:46.750Z,1013.4
2017-05-05T01:26:46.743Z,1013.4
2017-05-05T01:27:46.714Z,1013.41
2017-05-05T01:28:46.693Z,1013.39
2017-05-05T01:29:46.672Z,1013.39
2017-05-05T01:30:46.649Z,1013.4
2017-05-05T01:31:46.632Z,1013.37
2017-05-05T01:32:46.610Z,1013.39
2017-05-05T01:33:46.589Z,1013.37
2017-05-05T01:34:46.569Z,1013.41
2017-05-05T01:35:46.545Z,1013.4
2017-05-05T01:36:46.529Z,1013.4
2017-05-05T01:37:46.505Z,1013.38
2017-05-05T01:38:46.491Z,1013.35
2017-05-05T01:39:46.472Z,1013.39
2017-05-05T01:40:46.446Z,1013.37
2017-05-05T01:41:46.431Z,1013.35
2017-05-05T01:42:46.402Z,1013.36
2017-05-05T01:43:46.385Z,1013.35
2017-05-05T01:44:46.365Z,1013.33
2017-05-05T01:45:46.342Z,1013.32
2017-05-05T01:46:46.320Z,1013.3
2017-05-05T01:47:46.301Z,1013.32
2017-05-05T01:48:46.283Z,1013.29
2017-05-05T01:49:46.264Z,1013.25
2017-05-05T01:50:46.251Z,1013.3
2017-05-05T01:51:46.221Z,1013.29
2017-05-05T01:52:46.202Z,1013.28
2017-05-05T01:53:46.180Z,1013.26
2017-05-05T01:54:46.161Z,1013.3
2017-05-05T01:55:46.144Z,1013.26
2017-05-05T01:56:46.121Z,1013.24
2017-05-05T01:57:46.103Z,1013.28
2017-05-05T01:58:46.082Z,1013.27
2017-05-05T01:59:46.061Z,1013.27
2017-05-05T02:00:46.035Z,1013.29
2017-05-05T02:01:46.014Z,1013.28
2017-05-05T02:02:46.000Z,1013.32
2017-05-05T02:03:45.982Z,1013.27
2017-05-05T02:04:45.958Z,1013.29
2017-05-05T02:05:45.945Z,1013.26
2017-05-05T02:06:45.922Z,1013.28
2017-05-05T02:07:45.892Z,1013.26
2017-05-05T02:08:45.883Z,1013.27
2017-05-05T02:09:45.864Z,1013.28
2017-05-05T02:10:45.836Z,1013.25
2017-05-05T02:11:45.813Z,1013.26
2017-05-05T02:12:45.806Z,1013.3
2017-05-05T02:13:45.771Z,1013.3
2017-05-05T02:14:45.756Z,1013.29
2017-05-05T02:15:45.735Z,1013.28
2017-05-05T02:16:45.710Z,1013.31
2017-05-05T02:17:45.691Z,1013.28
2017-05-05T02:18:45.677Z,1013.26
2017-05-05T02:19:45.652Z,1013.24
2017-05-05T02:20:45.634Z,1013.21
2017-05-05T02:21:45.612Z,1013.22
2017-05-05T02:22:45.586Z,1013.2
2017-05-05T02:23:45.574Z,1013.19
2017-05-05T02:24:45.549Z,1013.19
2017-05-05T02:25:45.527Z,1013.21
2017-05-05T02:26:45.511Z,1013.24
2017-05-05T02:27:45.483Z,1013.19
2017-05-05T02:28:45.469Z,1013.23
2017-05-05T02:29:45.442Z,1013.2
2017-05-05T02:30:45.422Z,1013.21
2017-05-05T02:31:45.401Z,1013.2
2017-05-05T02:32:45.381Z,1013.2
2017-05-05T02:33:45.360Z,1013.21
2017-05-05T02:34:45.344Z,1013.2
2017-05-05T02:35:45.322Z,1013.2
2017-05-05T02:36:45.299Z,1013.21
2017-05-05T02:37:45.284Z,1013.17
2017-05-05T02:38:45.263Z,1013.17
2017-05-05T02:39:45.238Z,1013.16
2017-05-05T02:40:45.223Z,1013.16
2017-05-05T02:41:45.201Z,1013.17
2017-05-05T02:42:45.174Z,1013.15
2017-05-05T02:43:45.167Z,1013.19
2017-05-05T02:44:45.133Z,1013.21
2017-05-05T02:45:45.112Z,1013.18
2017-05-05T02:46:45.093Z,1013.22
2017-05-05T02:47:45.084Z,1013.23
2017-05-05T02:48:45.054Z,1013.21
2017-05-05T02:49:45.032Z,1013.22
2017-05-05T02:50:45.015Z,1013.23
2017-05-05T02:51:44.992Z,1013.26
2017-05-05T02:52:44.970Z,1013.22
2017-05-05T02:53:44.962Z,1013.25
2017-05-05T02:54:44.930Z,1013.23
2017-05-05T02:55:44.913Z,1013.23
2017-05-05T02:56:44.899Z,1013.25
2017-05-05T02:57:44.874Z,1013.23
2017-05-05T02:58:44.852Z,1013.27
2017-05-05T02:59:44.833Z,1013.23
2017-05-05T03:00:44.812Z,1013.25
2017-05-05T03:01:44.788Z,1013.28
2017-05-05T03:02:44.763Z,1013.26
2017-05-05T03:03:44.744Z,1013.27
2017-05-05T03:04:44.723Z,1013.29
2017-05-05T03:05:44.701Z,1013.27
2017-05-05T03:06:44.682Z,1013.25
2017-05-05T03:07:44.662Z,1013.26
2017-05-05T03:08:44.643Z,1013.31
2017-05-05T03:09:44.624Z,1013.29
2017-05-05T03:10:44.602Z,1013.28
2017-05-05T03:11:44.584Z,1013.3
2017-05-05T03:12:44.559Z,1013.33
2017-05-05T03:13:44.537Z,1013.29
2017-05-05T03:14:44.522Z,1013.33
2017-05-05T03:15:44.502Z,1013.32
2017-05-05T03:16:44.476Z,1013.34
2017-05-05T03:17:44.460Z,1013.3
2017-05-05T03:18:44.436Z,1013.28
2017-05-05T03:19:44.420Z,1013.31
2017-05-05T03:20:44.396Z,1013.31
2017-05-05T03:21:44.380Z,1013.25
2017-05-05T03:22:44.356Z,1013.27
2017-05-05T03:23:44.337Z,1013.26
2017-05-05T03:24:44.314Z,1013.28
2017-05-05T03:25:44.292Z,1013.27
2017-05-05T03:26:44.278Z,1013.27
2017-05-05T03:27:44.252Z,1013.24
2017-05-05T03:28:44.233Z,1013.25
2017-05-05T03:29:44.211Z,1013.27
2017-05-05T03:30:44.193Z,1013.28
2017-05-05T03:31:44.167Z,1013.28
2017-05-05T03:32:44.153Z,1013.23
2017-05-05T03:33:44.128Z,1013.25
2017-05-05T03:34:44.111Z,1013.26
2017-05-05T03:35:44.089Z,1013.22
2017-05-05T03:36:44.065Z,1013.24
2017-05-05T03:37:44.044Z,1013.22
2017-05-05T03:38:44.025Z,1013.21
2017-05-05T03:39:44.010Z,1013.22
2017-05-05T03:40:43.982Z,1013.22
2017-05-05T03:41:43.961Z,1013.24
2017-05-05T03:42:43.941Z,1013.23
2017-05-05T03:43:43.923Z,1013.21
2017-05-05T03:44:43.903Z,1013.26
2017-05-05T03:45:43.893Z,1013.27
2017-05-05T03:46:43.861Z,1013.28
2017-05-05T03:47:43.842Z,1013.28
2017-05-05T03:48:43.822Z,1013.31
2017-05-05T03:49:43.802Z,1013.29
2017-05-05T03:50:43.782Z,1013.31
2017-05-05T03:51:43.760Z,1013.28
2017-05-05T03:52:43.742Z,1013.3
2017-05-05T03:53:43.721Z,1013.29
2017-05-05T03:54:43.696Z,1013.31
2017-05-05T03:55:43.678Z,1013.27
2017-05-05T03:56:43.654Z,1013.29
2017-05-05T03:57:43.633Z,1013.25
2017-05-05T03:58:43.615Z,1013.27
2017-05-05T03:59:43.593Z,1013.26
2017-05-05T04:00:43.575Z,1013.26
2017-05-05T04:01:43.552Z,1013.26
2017-05-05T04:02:43.533Z,1013.24
2017-05-05T04:03:43.512Z,1013.24
2017-05-05T04:04:43.489Z,1013.22
2017-05-05T04:05:43.470Z,1013.22
2017-05-05T04:06:43.453Z,1013.23
2017-05-05T04:07:43.430Z,1013.22
2017-05-05T04:08:43.413Z,1013.26
2017-05-05T04:09:43.387Z,1013.23
2017-05-05T04:10:43.375Z,1013.27
2017-05-05T04:11:43.350Z,1013.29
2017-05-05T04:12:43.324Z,1013.28
2017-05-05T04:13:43.314Z,1013.28
2017-05-05T04:14:43.286Z,1013.29
2017-05-05T04:15:43.263Z,1013.31
2017-05-05T04:16:43.244Z,1013.31
2017-05-05T04:17:43.223Z,1013.29
2017-05-05T04:18:43.204Z,1013.33
2017-05-05T04:19:43.183Z,1013.33
2017-05-05T04:20:43.162Z,1013.34
2017-05-05T04:21:43.143Z,1013.35
2017-05-05T04:22:43.120Z,1013.31
2017-05-05T04:23:43.100Z,1013.31
2017-05-05T04:24:43.080Z,1013.33
2017-05-05T04:25:43.063Z,1013.34
2017-05-05T04:26:43.043Z,1013.32
2017-05-05T04:27:43.019Z,1013.31
2017-05-05T04:28:42.998Z,1013.3
2017-05-05T04:29:42.974Z,1013.32
2017-05-05T04:30:42.965Z,1013.29
2017-05-05T04:31:42.939Z,1013.32
2017-05-05T04:32:42.913Z,1013.29
2017-05-05T04:33:42.904Z,1013.32
2017-05-05T04:34:42.874Z,1013.32
2017-05-05T04:35:42.851Z,1013.28
2017-05-05T04:36:42.834Z,1013.28
2017-05-05T04:37:42.823Z,1013.28
2017-05-05T04:38:42.792Z,1013.26
2017-05-05T04:39:42.772Z,1013.26
2017-05-05T04:40:42.756Z,1013.28
2017-05-05T04:41:42.731Z,1013.25
2017-05-05T04:42:42.708Z,1013.27
2017-05-05T04:43:42.690Z,1013.29
2017-05-05T04:44:42.669Z,1013.29
2017-05-05T04:45:42.649Z,1013.26
2017-05-05T04:46:42.630Z,1013.25
2017-05-05T04:47:42.607Z,1013.27
2017-05-05T04:48:42.586Z,1013.3
2017-05-05T04:49:42.563Z,1013.3
2017-05-05T04:50:42.541Z,1013.3
2017-05-05T04:51:42.542Z,1013.31
2017-05-05T04:52:42.512Z,1013.29
2017-05-05T04:53:42.489Z,1013.3
2017-05-05T04:54:42.463Z,1013.33
2017-05-05T04:55:42.463Z,1013.36
2017-05-05T04:56:42.418Z,1013.35
2017-05-05T04:57:42.403Z,1013.39
2017-05-05T04:58:42.382Z,1013.36
2017-05-05T04:59:42.362Z,1013.41
2017-05-05T05:00:42.338Z,1013.39
2017-05-05T05:01:42.321Z,1013.39
2017-05-05T05:02:42.300Z,1013.42
2017-05-05T05:03:42.277Z,1013.44
2017-05-05T05:04:42.258Z,1013.43
2017-05-05T05:05:42.244Z,1013.41
2017-05-05T05:06:42.223Z,1013.46
2017-05-05T05:07:42.197Z,1013.47
2017-05-05T05:08:42.179Z,1013.46
2017-05-05T05:09:42.153Z,1013.48
2017-05-05T05:10:42.132Z,1013.47
2017-05-05T05:11:42.112Z,1013.47
2017-05-05T05:12:42.093Z,1013.5
2017-05-05T05:13:42.071Z,1013.5
2017-05-05T05:14:42.052Z,1013.48
2017-05-05T05:15:42.032Z,1013.51
2017-05-05T05:16:42.023Z,1013.47
2017-05-05T05:17:41.992Z,1013.52
2017-05-05T05:18:41.973Z,1013.52
2017-05-05T05:19:41.952Z,1013.54
2017-05-05T05:20:41.930Z,1013.56
2017-05-05T05:21:41.912Z,1013.54
2017-05-05T05:22:41.894Z,1013.56
2017-05-05T05:23:41.875Z,1013.57
2017-05-05T05:24:41.847Z,1013.6
2017-05-05T05:25:41.859Z,1013.6
2017-05-05T05:26:41.806Z,1013.6
2017-05-05T05:27:41.791Z,1013.6
2017-05-05T05:28:41.764Z,1013.61
2017-05-05T05:29:41.742Z,1013.63
2017-05-05T05:30:41.721Z,1013.64
2017-05-05T05:31:41.701Z,1013.63
2017-05-05T05:32:41.681Z,1013.64
2017-05-05T05:33:41.662Z,1013.62
2017-05-05T05:34:41.643Z,1013.67
2017-05-05T05:35:41.619Z,1013.65
2017-05-05T05:36:41.604Z,1013.63
2017-05-05T05:37:41.581Z,1013.65
2017-05-05T05:38:41.566Z,1013.64
2017-05-05T05:39:41.542Z,1013.62
2017-05-05T05:40:41.521Z,1013.6
2017-05-05T05:41:41.495Z,1013.61
2017-05-05T05:42:41.484Z,1013.6
2017-05-05T05:43:41.462Z,1013.61
2017-05-05T05:44:41.437Z,1013.63
2017-05-05T05:45:41.422Z,1013.62
2017-05-05T05:46:41.392Z,1013.59
2017-05-05T05:47:41.373Z,1013.58
2017-05-05T05:48:41.352Z,1013.62
2017-05-05T05:49:41.333Z,1013.63
2017-05-05T05:50:41.314Z,1013.63
2017-05-05T05:51:41.291Z,1013.63
2017-05-05T05:52:41.273Z,1013.62
2017-05-05T05:53:41.252Z,1013.63
2017-05-05T05:54:41.232Z,1013.63
2017-05-05T05:55:41.212Z,1013.64
2017-05-05T05:56:41.193Z,1013.65
2017-05-05T05:57:41.172Z,1013.62
2017-05-05T05:58:41.154Z,1013.65
2017-05-05T05:59:41.181Z,1013.63
2017-05-05T06:00:41.111Z,1013.65
2017-05-05T06:01:41.089Z,1013.65
2017-05-05T06:02:41.071Z,1013.61
2017-05-05T06:03:41.048Z,1013.68
2017-05-05T06:04:41.035Z,1013.65
2017-05-05T06:05:41.014Z,1013.71
2017-05-05T06:06:40.993Z,1013.67
2017-05-05T06:07:40.972Z,1013.71
2017-05-05T06:08:40.941Z,1013.7
2017-05-05T06:09:40.926Z,1013.7
2017-05-05T06:10:40.907Z,1013.74
2017-05-05T06:11:40.882Z,1013.74
2017-05-05T06:12:40.866Z,1013.74
2017-05-05T06:13:40.845Z,1013.77
2017-05-05T06:14:40.823Z,1013.78
2017-05-05T06:15:40.801Z,1013.78
2017-05-05T06:16:40.780Z,1013.81
2017-05-05T06:17:40.763Z,1013.82
2017-05-05T06:18:40.740Z,1013.85
2017-05-05T06:19:40.717Z,1013.84
2017-05-05T06:20:40.697Z,1013.83
2017-05-05T06:21:40.680Z,1013.85
2017-05-05T06:22:40.661Z,1013.9
2017-05-05T06:23:40.651Z,1013.89
2017-05-05T06:24:40.614Z,1013.89
2017-05-05T06:25:40.595Z,1013.93
2017-05-05T06:26:40.583Z,1013.93
2017-05-05T06:27:40.553Z,1013.96
2017-05-05T06:28:40.531Z,1013.97
2017-05-05T06:29:40.512Z,1013.96
2017-05-05T06:30:40.492Z,1013.95
2017-05-05T06:31:40.473Z,1013.94
2017-05-05T06:32:40.449Z,1013.96
2017-05-05T06:33:40.430Z,1013.96
2017-05-05T06:34:40.413Z,1013.95
2017-05-05T06:35:40.392Z,1013.95
2017-05-05T06:36:40.384Z,1013.95
2017-05-05T06:37:40.352Z,1013.96
2017-05-05T06:38:40.333Z,1013.97
2017-05-05T06:39:40.310Z,1013.96
2017-05-05T06:40:40.290Z,1013.97
2017-05-05T06:41:40.265Z,1013.98
2017-05-05T06:42:40.252Z,1013.97
2017-05-05T06:43:40.284Z,1013.94
2017-05-05T06:44:40.205Z,1013.96
2017-05-05T06:45:40.238Z,1013.96
2017-05-05T06:46:40.162Z,1013.96
2017-05-05T06:47:40.142Z,1013.93
2017-05-05T06:48:40.120Z,1013.96
2017-05-05T06:49:40.118Z,1013.98
2017-05-05T06:50:40.093Z,1013.94
2017-05-05T06:51:40.110Z,1013.96
2017-05-05T06:52:40.043Z,1013.98
2017-05-05T06:53:40.072Z,1013.96
2017-05-05T06:54:40.003Z,1013.96
2017-05-05T06:55:40.027Z,1013.92
2017-05-05T06:56:39.967Z,1013.97
2017-05-05T06:57:39.941Z,1013.99
2017-05-05T06:58:39.918Z,1014
2017-05-05T06:59:39.904Z,1013.97
2017-05-05T07:00:39.875Z,1013.97
2017-05-05T07:01:39.912Z,1013.98
2017-05-05T07:02:39.841Z,1014.02
2017-05-05T07:03:39.827Z,1014.03
2017-05-05T07:04:39.795Z,1014.04
2017-05-05T07:05:39.825Z,1014.06
2017-05-05T07:06:39.758Z,1014.04
2017-05-05T07:07:39.764Z,1014.06
2017-05-05T07:08:39.713Z,1014.05
2017-05-05T07:09:39.708Z,1014.09
2017-05-05T07:10:39.673Z,1014.1
2017-05-05T07:11:39.652Z,1014.08
2017-05-05T07:12:39.632Z,1014.04
2017-05-05T07:13:39.711Z,1014.03
2017-05-05T07:14:39.591Z,1014.05
2017-05-05T07:15:39.577Z,1014.07
2017-05-05T07:16:39.553Z,1014.08
2017-05-05T07:17:39.532Z,1014.05
2017-05-05T07:18:39.511Z,1014.07
2017-05-05T07:19:39.494Z,1014.06
2017-05-05T07:20:39.471Z,1014.11
2017-05-05T07:21:39.495Z,1014.11
2017-05-05T07:22:39.431Z,1014.08
2017-05-05T07:23:39.408Z,1014.12
2017-05-05T07:24:39.392Z,1014.11
2017-05-05T07:25:39.367Z,1014.11
2017-05-05T07:26:39.352Z,1014.13
2017-05-05T07:27:39.333Z,1014.11
2017-05-05T07:28:39.305Z,1014.13
2017-05-05T07:29:39.283Z,1014.1
2017-05-05T07:30:39.267Z,1014.11
2017-05-05T07:31:39.253Z,1014.14
2017-05-05T07:32:39.226Z,1014.15
2017-05-05T07:33:39.210Z,1014.14
2017-05-05T07:34:39.186Z,1014.19
2017-05-05T07:35:39.167Z,1014.19
2017-05-05T07:36:39.146Z,1014.2
2017-05-05T07:37:39.128Z,1014.19
2017-05-05T07:38:39.107Z,1014.23
2017-05-05T07:39:39.084Z,1014.21
2017-05-05T07:40:39.062Z,1014.23
2017-05-05T07:41:39.047Z,1014.22
2017-05-05T07:42:39.020Z,1014.22
2017-05-05T07:43:39.007Z,1014.25
2017-05-05T07:44:38.982Z,1014.26
2017-05-05T07:45:38.967Z,1014.23
2017-05-05T07:46:38.942Z,1014.23
2017-05-05T07:47:38.925Z,1014.25
2017-05-05T07:48:38.901Z,1014.26
2017-05-05T07:49:38.881Z,1014.27
2017-05-05T07:50:38.863Z,1014.23
2017-05-05T07:51:38.841Z,1014.21
2017-05-05T07:52:38.821Z,1014.23
2017-05-05T07:53:38.799Z,1014.25
2017-05-05T07:54:38.784Z,1014.19
2017-05-05T07:55:38.761Z,1014.27
2017-05-05T07:56:38.741Z,1014.29
2017-05-05T07:57:38.723Z,1014.25
2017-05-05T07:58:38.703Z,1014.2
2017-05-05T07:59:38.683Z,1014.26
2017-05-05T08:00:38.667Z,1014.22
2017-05-05T08:01:38.643Z,1014.2
2017-05-05T08:02:38.634Z,1014.23
2017-05-05T08:03:38.609Z,1014.2
2017-05-05T08:04:38.584Z,1014.19
2017-05-05T08:05:38.568Z,1014.21
2017-05-05T08:06:38.543Z,1014.21
2017-05-05T08:07:38.523Z,1014.19
2017-05-05T08:08:38.505Z,1014.22
2017-05-05T08:09:38.485Z,1014.19
2017-05-05T08:10:38.463Z,1014.21
2017-05-05T08:11:38.443Z,1014.2
2017-05-05T08:12:38.429Z,1014.2
2017-05-05T08:13:38.408Z,1014.16
2017-05-05T08:14:38.383Z,1014.21
2017-05-05T08:15:38.363Z,1014.13
2017-05-05T08:16:38.342Z,1014.16
2017-05-05T08:17:38.325Z,1014.15
2017-05-05T08:18:38.303Z,1014.16
2017-05-05T08:19:38.282Z,1014.16
2017-05-05T08:20:38.261Z,1014.17
2017-05-05T08:21:38.252Z,1014.16
2017-05-05T08:22:38.222Z,1014.15
2017-05-05T08:23:38.202Z,1014.15
2017-05-05T08:24:38.182Z,1014.13
2017-05-05T08:25:38.163Z,1014.11
2017-05-05T08:26:38.143Z,1014.12
2017-05-05T08:27:38.124Z,1014.1
2017-05-05T08:28:38.105Z,1014.11
2017-05-05T08:29:38.088Z,1014.1
2017-05-05T08:30:38.065Z,1014.08
2017-05-05T08:31:38.129Z,1014.12
2017-05-05T08:32:38.025Z,1014.13
2017-05-05T08:33:38.051Z,1014.12
2017-05-05T08:34:37.987Z,1014.13
2017-05-05T08:35:37.967Z,1014.11
2017-05-05T08:36:37.945Z,1014.11
2017-05-05T08:37:37.935Z,1014.15
2017-05-05T08:38:37.902Z,1014.15
2017-05-05T08:39:38.014Z,1014.14
2017-05-05T08:40:37.861Z,1014.14
2017-05-05T08:41:37.846Z,1014.15
2017-05-05T08:42:37.825Z,1014.14
2017-05-05T08:43:37.802Z,1014.11
2017-05-05T08:44:37.782Z,1014.16
2017-05-05T08:45:37.860Z,1014.14
2017-05-05T08:46:37.741Z,1014.14
2017-05-05T08:47:37.728Z,1014.15
2017-05-05T08:48:37.702Z,1014.12
2017-05-05T08:49:37.795Z,1014.12
2017-05-05T08:50:37.662Z,1014.14
2017-05-05T08:51:37.646Z,1014.14
2017-05-05T08:52:37.626Z,1014.17
2017-05-05T08:53:37.721Z,1014.15
2017-05-05T08:54:37.592Z,1014.17
2017-05-05T08:55:37.571Z,1014.15
2017-05-05T08:56:37.551Z,1014.14
2017-05-05T08:57:37.533Z,1014.14
2017-05-05T08:58:37.512Z,1014.1
2017-05-05T08:59:37.491Z,1014.11
2017-05-05T09:00:37.472Z,1014.11
2017-05-05T09:01:37.450Z,1014.13
2017-05-05T09:02:37.433Z,1014.12
2017-05-05T09:03:37.415Z,1014.11
2017-05-05T09:04:37.393Z,1014.13
2017-05-05T09:05:37.379Z,1014.13
2017-05-05T09:06:37.353Z,1014.13
2017-05-05T09:07:37.333Z,1014.12
2017-05-05T09:08:37.311Z,1014.16
2017-05-05T09:09:37.302Z,1014.17
2017-05-05T09:10:37.273Z,1014.17
2017-05-05T09:11:37.252Z,1014.21
2017-05-05T09:12:37.233Z,1014.21
2017-05-05T09:13:37.213Z,1014.2
2017-05-05T09:14:37.195Z,1014.24
2017-05-05T09:15:37.175Z,1014.22
2017-05-05T09:16:37.155Z,1014.22
2017-05-05T09:17:37.135Z,1014.21
2017-05-05T09:18:37.123Z,1014.23
2017-05-05T09:19:37.102Z,1014.28
2017-05-05T09:20:37.081Z,1014.28
2017-05-05T09:21:37.059Z,1014.3
2017-05-05T09:22:37.041Z,1014.29
2017-05-05T09:23:37.018Z,1014.31
2017-05-05T09:24:36.999Z,1014.25
2017-05-05T09:25:36.983Z,1014.26
2017-05-05T09:26:36.958Z,1014.31
2017-05-05T09:27:36.944Z,1014.32
2017-05-05T09:28:36.924Z,1014.33
2017-05-05T09:29:36.900Z,1014.35
2017-05-05T09:30:36.882Z,1014.34
2017-05-05T09:31:36.862Z,1014.38
2017-05-05T09:32:36.842Z,1014.36
2017-05-05T09:33:36.821Z,1014.37
2017-05-05T09:34:36.812Z,1014.36
2017-05-05T09:35:36.784Z,1014.3
2017-05-05T09:36:36.761Z,1014.3
2017-05-05T09:37:36.741Z,1014.35
2017-05-05T09:38:36.721Z,1014.36
2017-05-05T09:39:36.713Z,1014.36
2017-05-05T09:40:36.687Z,1014.34
2017-05-05T09:41:36.673Z,1014.36
2017-05-05T09:42:36.645Z,1014.38
2017-05-05T09:43:36.627Z,1014.38
2017-05-05T09:44:36.615Z,1014.39
2017-05-05T09:45:36.590Z,1014.37
2017-05-05T09:46:36.570Z,1014.4
2017-05-05T09:47:36.552Z,1014.41
2017-05-05T09:48:36.528Z,1014.43
2017-05-05T09:49:36.511Z,1014.42
2017-05-05T09:50:36.494Z,1014.47
2017-05-05T09:51:36.471Z,1014.5
2017-05-05T09:52:36.451Z,1014.46
2017-05-05T09:53:36.446Z,1014.47
2017-05-05T09:54:36.412Z,1014.47
2017-05-05T09:55:36.391Z,1014.46
2017-05-05T09:56:36.372Z,1014.47
2017-05-05T09:57:36.354Z,1014.46
2017-05-05T09:58:36.335Z,1014.45
2017-05-05T09:59:36.313Z,1014.45
2017-05-05T10:00:36.294Z,1014.46
2017-05-05T10:01:36.276Z,1014.5
2017-05-05T10:02:36.271Z,1014.52
2017-05-05T10:03:36.238Z,1014.54
2017-05-05T10:04:36.219Z,1014.55
2017-05-05T10:05:36.201Z,1014.55
2017-05-05T10:06:36.183Z,1014.56
2017-05-05T10:07:36.159Z,1014.54
2017-05-05T10:08:36.143Z,1014.59
2017-05-05T10:09:36.124Z,1014.55
2017-05-05T10:10:36.101Z,1014.55
2017-05-05T10:11:36.086Z,1014.53
2017-05-05T10:12:36.060Z,1014.52
2017-05-05T10:13:36.075Z,1014.54
2017-05-05T10:14:36.025Z,1014.55
2017-05-05T10:15:36.002Z,1014.56
2017-05-05T10:16:35.986Z,1014.59
2017-05-05T10:17:35.965Z,1014.57
2017-05-05T10:18:35.944Z,1014.63
2017-05-05T10:19:35.923Z,1014.58
2017-05-05T10:20:35.901Z,1014.63
2017-05-05T10:21:35.880Z,1014.61
2017-05-05T10:22:35.862Z,1014.59
2017-05-05T10:23:35.839Z,1014.65
2017-05-05T10:24:35.823Z,1014.7
2017-05-05T10:25:35.803Z,1014.63
2017-05-05T10:26:35.782Z,1014.66
2017-05-05T10:27:35.773Z,1014.67
2017-05-05T10:28:35.754Z,1014.66
2017-05-05T10:29:35.723Z,1014.62
2017-05-05T10:30:35.703Z,1014.64
2017-05-05T10:31:35.688Z,1014.62
2017-05-05T10:32:35.668Z,1014.6
2017-05-05T10:33:35.645Z,1014.61
2017-05-05T10:34:35.630Z,1014.6
2017-05-05T10:35:35.609Z,1014.58
2017-05-05T10:36:35.588Z,1014.61
2017-05-05T10:37:35.574Z,1014.58
2017-05-05T10:38:35.554Z,1014.52
2017-05-05T10:39:35.530Z,1014.53
2017-05-05T10:40:35.512Z,1014.51
2017-05-05T10:41:35.492Z,1014.5
2017-05-05T10:42:35.468Z,1014.49
2017-05-05T10:43:35.448Z,1014.48
2017-05-05T10:44:35.430Z,1014.44
2017-05-05T10:45:35.412Z,1014.43
2017-05-05T10:46:35.393Z,1014.43
2017-05-05T10:47:35.372Z,1014.45
2017-05-05T10:48:35.353Z,1014.45
2017-05-05T10:49:35.332Z,1014.46
2017-05-05T10:50:35.313Z,1014.45
2017-05-05T10:51:35.292Z,1014.43
2017-05-05T10:52:35.277Z,1014.45
2017-05-05T10:53:35.274Z,1014.45
2017-05-05T10:54:35.240Z,1014.44
2017-05-05T10:55:35.217Z,1014.44
2017-05-05T10:56:35.200Z,1014.47
2017-05-05T10:57:35.177Z,1014.44
2017-05-05T10:58:35.163Z,1014.43
2017-05-05T10:59:35.143Z,1014.43
2017-05-05T11:00:35.122Z,1014.41
2017-05-05T11:01:35.103Z,1014.35
2017-05-05T11:02:35.082Z,1014.35
2017-05-05T11:03:35.063Z,1014.37
2017-05-05T11:04:35.047Z,1014.33
2017-05-05T11:05:35.021Z,1014.34
2017-05-05T11:06:35.002Z,1014.32
2017-05-05T11:07:34.992Z,1014.32
2017-05-05T11:08:34.972Z,1014.37
2017-05-05T11:09:34.951Z,1014.35
2017-05-05T11:10:34.930Z,1014.39
2017-05-05T11:11:34.912Z,1014.38
2017-05-05T11:12:34.892Z,1014.4
2017-05-05T11:13:34.873Z,1014.37
2017-05-05T11:14:34.863Z,1014.36
2017-05-05T11:15:34.835Z,1014.31
2017-05-05T11:16:34.822Z,1014.33
2017-05-05T11:17:34.802Z,1014.37
2017-05-05T11:18:34.783Z,1014.36
2017-05-05T11:19:34.761Z,1014.36
2017-05-05T11:20:34.755Z,1014.36
2017-05-05T11:21:34.729Z,1014.39
2017-05-05T11:22:34.710Z,1014.42
2017-05-05T11:23:34.692Z,1014.42
2017-05-05T11:24:34.686Z,1014.39
2017-05-05T11:25:34.656Z,1014.38
2017-05-05T11:26:34.650Z,1014.44
2017-05-05T11:27:34.619Z,1014.43
2017-05-05T11:28:34.603Z,1014.42
2017-05-05T11:29:34.582Z,1014.45
2017-05-05T11:30:34.571Z,1014.48
2017-05-05T11:31:34.549Z,1014.5
2017-05-05T11:32:34.533Z,1014.48
2017-05-05T11:33:34.512Z,1014.48
2017-05-05T11:34:34.491Z,1014.52
2017-05-05T11:35:34.472Z,1014.5
2017-05-05T11:36:34.459Z,1014.47
2017-05-05T11:37:34.434Z,1014.5
2017-05-05T11:38:34.419Z,1014.48
2017-05-05T11:39:34.412Z,1014.48
2017-05-05T11:40:34.382Z,1014.43
2017-05-05T11:41:34.361Z,1014.49
2017-05-05T11:42:34.345Z,1014.51
2017-05-05T11:43:34.334Z,1014.49
2017-05-05T11:44:34.307Z,1014.48
2017-05-05T11:45:34.345Z,1014.49
2017-05-05T11:46:34.269Z,1014.49
2017-05-05T11:47:34.257Z,1014.48
2017-05-05T11:48:34.233Z,1014.5
2017-05-05T11:49:34.219Z,1014.47
2017-05-05T11:50:34.195Z,1014.49
2017-05-05T11:51:34.275Z,1014.48
2017-05-05T11:52:34.159Z,1014.49
2017-05-05T11:53:34.152Z,1014.48
2017-05-05T11:54:34.124Z,1014.48
2017-05-05T11:55:34.220Z,1014.46
2017-05-05T11:56:34.086Z,1014.46
2017-05-05T11:57:34.072Z,1014.46
2017-05-05T11:58:34.051Z,1014.5
2017-05-05T11:59:34.047Z,1014.47
2017-05-05T12:00:34.009Z,1014.47
2017-05-05T12:01:34.002Z,1014.44
2017-05-05T12:02:33.979Z,1014.48
2017-05-05T12:03:34.059Z,1014.46
2017-05-05T12:04:33.941Z,1014.46
2017-05-05T12:05:34.029Z,1014.49
2017-05-05T12:06:33.902Z,1014.46
2017-05-05T12:07:33.882Z,1014.46
2017-05-05T12:08:33.864Z,1014.41